Time;durP1;ratioP1;P1;durP2;ratioP2;P2;SDS_P1;SDS_P2;PMS_P1;PMS_P2;Temp;Humidity;BMP_temperature;BMP_pressure;BME280_temperature;BME280_humidity;BME280_pressure;Samples;Min_cycle;Max_cycle;Signal;HPM_P1;HPM_P2
2023/03/02 00:01:43;;;;;;;16.45;9.80;;;3.00;99.90;;;2.79;nan;101013.56;5042036;28;20205;-66
2023/03/02 00:04:16;;;;;;;16.67;9.52;;;2.90;99.90;;;2.78;nan;101017.03;5047492;28;20219;-65
2023/03/02 00:06:43;;;;;;;15.50;8.82;;;2.90;99.90;;;2.80;nan;101012.66;5043395;28;20202;-64
2023/03/02 00:09:10;;;;;;;14.65;9.63;;;3.00;99.90;;;2.78;nan;101009.28;5033927;28;20272;-64
2023/03/02 00:11:38;;;;;;;13.82;9.90;;;2.90;99.90;;;2.77;nan;101007.63;5037029;28;20218;-64
2023/03/02 00:14:05;;;;;;;15.38;9.63;;;2.90;99.90;;;2.77;nan;101008.44;5051155;28;20197;-65
2023/03/02 00:16:33;;;;;;;12.90;9.40;;;2.90;99.90;;;2.74;nan;101003.41;5035576;28;20233;-65
2023/03/02 00:19:00;;;;;;;14.00;9.38;;;2.90;99.90;;;2.72;nan;101010.34;5035456;28;20221;-65
2023/03/02 00:21:27;;;;;;;17.40;8.13;;;2.90;99.90;;;2.70;nan;101011.31;5036559;28;20263;-64
2023/03/02 00:23:54;;;;;;;15.00;9.75;;;2.90;99.90;;;2.68;nan;101003.63;5051370;28;20600;-66
2023/03/02 00:26:21;;;;;;;15.73;9.75;;;2.80;99.90;;;2.66;nan;101005.38;5037323;28;20206;-66
2023/03/02 00:28:48;;;;;;;14.57;9.60;;;2.80;99.90;;;2.65;nan;101008.88;5053096;28;20223;-65
2023/03/02 00:31:16;;;;;;;13.82;8.98;;;2.80;99.90;;;2.65;nan;101014.03;5051011;28;20206;-65
2023/03/02 00:33:42;;;;;;;14.30;9.45;;;2.80;99.90;;;2.58;nan;101014.28;5050862;28;20590;-66
2023/03/02 00:36:17;;;;;;;14.10;8.60;;;2.70;99.90;;;2.57;nan;101010.88;5050732;28;20213;-65
2023/03/02 00:38:44;;;;;;;15.82;9.20;;;2.70;99.90;;;2.57;nan;101013.44;5032537;28;20204;-64
2023/03/02 00:41:13;;;;;;;16.83;10.27;;;2.70;99.90;;;2.61;nan;101009.88;5036324;28;20269;-65
2023/03/02 00:43:40;;;;;;;16.50;9.10;;;2.80;99.90;;;2.61;nan;101004.72;5037694;28;20655;-65
2023/03/02 00:46:10;;;;;;;16.95;9.73;;;2.80;99.90;;;2.61;nan;100997.00;5031493;28;20210;-65
2023/03/02 00:48:37;;;;;;;17.48;8.25;;;2.80;99.90;;;2.61;nan;101003.88;5035805;28;20193;-64
2023/03/02 00:51:05;;;;;;;13.65;7.22;;;2.80;99.90;;;2.60;nan;101003.03;5048179;28;20922;-65
2023/03/02 00:53:35;;;;;;;11.98;6.63;;;2.70;99.90;;;2.60;nan;101002.19;5031688;28;20228;-64
2023/03/02 00:56:03;;;;;;;14.68;7.70;;;2.80;99.90;;;2.58;nan;101001.41;5032695;28;20205;-65
2023/03/02 00:58:31;;;;;;;14.80;8.57;;;2.70;99.90;;;2.54;nan;100992.91;5042670;28;20212;-65
2023/03/02 01:01:03;;;;;;;13.90;6.90;;;2.70;99.90;;;2.56;nan;100998.00;5050285;28;20593;-64
2023/03/02 01:03:30;;;;;;;16.63;8.98;;;2.70;99.90;;;2.52;nan;100991.28;5032910;28;20206;-65
2023/03/02 01:05:57;;;;;;;15.25;8.77;;;2.70;99.90;;;2.49;nan;100984.53;5044750;28;20209;-64
2023/03/02 01:08:24;;;;;;;15.32;8.57;;;2.70;99.90;;;2.47;nan;100980.31;5043113;28;20210;-64
2023/03/02 01:10:51;;;;;;;13.48;7.85;;;2.70;99.90;;;2.47;nan;100981.13;5040825;28;20229;-64
2023/03/02 01:13:20;;;;;;;12.07;6.63;;;2.70;99.90;;;2.46;nan;100976.03;5048734;28;20217;-64
2023/03/02 01:15:47;;;;;;;13.40;8.20;;;2.70;99.90;;;2.41;nan;100977.94;5045501;28;20579;-64
2023/03/02 01:18:14;;;;;;;17.00;8.57;;;2.60;99.90;;;2.43;nan;100966.69;5049973;28;20215;-64
2023/03/02 01:20:41;;;;;;;15.15;6.78;;;2.60;99.90;;;2.43;nan;100966.69;5031685;28;20230;-64
2023/03/02 01:23:08;;;;;;;16.15;9.40;;;2.60;99.90;;;2.42;nan;100966.75;5034870;28;20216;-64
2023/03/02 01:25:37;;;;;;;16.25;9.75;;;2.70;99.90;;;2.29;nan;100961.16;5046860;28;20189;-63
2023/03/02 01:28:04;;;;;;;14.35;8.48;;;2.50;99.90;;;2.27;nan;100960.38;5046154;28;20205;-64
2023/03/02 01:30:31;;;;;;;16.63;9.45;;;2.50;99.90;;;2.23;nan;100953.63;5050004;28;20229;-64
2023/03/02 01:32:58;;;;;;;11.25;7.30;;;2.40;99.90;;;2.25;nan;100957.84;5049140;28;20221;-64
2023/03/02 01:35:25;;;;;;;13.55;8.10;;;2.40;99.90;;;2.19;nan;100962.34;5034429;28;20204;-64
2023/03/02 01:37:52;;;;;;;15.07;8.50;;;2.40;99.90;;;2.20;nan;100964.03;5042008;28;20209;-64
2023/03/02 01:40:19;;;;;;;3.47;2.90;;;2.40;99.90;;;2.21;nan;100963.16;5049383;28;20229;-64
2023/03/02 01:42:52;;;;;;;10.43;6.25;;;2.40;99.90;;;2.20;nan;100958.88;5042575;28;20585;-66
2023/03/02 01:46:00;;;;;;;12.80;7.18;;;2.40;99.90;;;2.16;nan;100950.41;5040379;28;20206;-64
2023/03/02 01:48:41;;;;;;;13.60;7.95;;;2.40;99.90;;;2.14;nan;100954.78;5034204;28;20670;-62
2023/03/02 01:51:14;;;;;;;12.82;7.68;;;2.40;99.90;;;2.14;nan;100949.63;5042290;28;20264;-64
2023/03/02 01:53:45;;;;;;;12.90;7.05;;;2.40;99.90;;;2.12;nan;100946.25;5029448;28;20226;-63
2023/03/02 01:56:19;;;;;;;13.60;7.30;;;2.30;99.90;;;2.10;nan;100940.31;5031081;28;20198;-64
2023/03/02 01:58:52;;;;;;;16.63;8.77;;;2.30;99.90;;;2.07;nan;100935.25;5044263;28;20712;-64
2023/03/02 02:01:19;;;;;;;14.80;9.65;;;2.30;99.90;;;2.02;nan;100931.16;5050435;28;20197;-64
2023/03/02 02:03:49;;;;;;;11.00;6.50;;;2.30;99.90;;;2.02;nan;100931.97;5050390;28;20406;-63
2023/03/02 02:06:30;;;;;;;15.23;9.45;;;2.20;99.90;;;2.04;nan;100931.97;5038904;28;20595;-64
2023/03/02 02:09:00;;;;;;;15.10;8.10;;;2.20;99.90;;;2.00;nan;100928.63;5045389;28;20258;-63
2023/03/02 02:11:27;;;;;;;14.15;8.57;;;2.20;99.90;;;1.97;nan;100922.75;5040523;28;20638;-63
2023/03/02 02:13:58;;;;;;;15.35;9.50;;;2.20;99.90;;;1.95;nan;100921.94;5046253;28;20239;-63
2023/03/02 02:16:28;;;;;;;12.82;7.53;;;2.20;99.90;;;1.97;nan;100925.31;5041571;28;20555;-64
2023/03/02 02:18:55;;;;;;;15.57;8.95;;;2.20;99.90;;;1.94;nan;100920.28;5047903;28;20228;-65
2023/03/02 02:21:24;;;;;;;15.48;8.80;;;2.20;99.90;;;1.91;nan;100920.38;5032013;28;20198;-64
2023/03/02 02:24:29;;;;;;;16.75;10.25;;;2.10;99.90;;;1.86;nan;100917.94;5028238;28;20210;-63
2023/03/02 02:26:57;;;;;;;16.85;10.80;;;2.10;99.90;;;1.86;nan;100922.22;5026824;28;20677;-61
2023/03/02 02:29:31;;;;;;;15.35;9.95;;;2.00;99.90;;;1.83;nan;100914.63;5034736;28;20221;-64
2023/03/02 02:32:12;;;;;;;13.98;10.00;;;2.00;99.90;;;1.83;nan;100914.63;5047909;28;20239;-64
2023/03/02 02:34:46;;;;;;;14.10;9.80;;;2.00;99.90;;;1.82;nan;100913.78;5047241;28;20246;-64
2023/03/02 02:37:28;;;;;;;14.80;10.90;;;2.00;99.90;;;1.75;nan;100906.28;5050560;28;20201;-64
2023/03/02 02:39:55;;;;;;;13.98;9.63;;;2.00;99.90;;;1.81;nan;100914.66;5048781;28;20290;-64
2023/03/02 02:42:44;;;;;;;14.57;7.45;;;2.00;99.90;;;1.84;nan;100918.88;5047060;28;20231;-63
2023/03/02 02:45:22;;;;;;;17.90;10.20;;;2.00;99.90;;;1.83;nan;100906.91;5046805;28;20208;-64
2023/03/02 02:47:50;;;;;;;14.93;9.82;;;2.00;99.90;;;1.84;nan;100908.56;5035669;28;20286;-63
2023/03/02 02:50:36;;;;;;;15.32;10.65;;;2.10;99.90;;;1.79;nan;100910.47;5051438;28;20228;-64
2023/03/02 02:53:19;;;;;;;18.48;9.57;;;2.00;99.90;;;1.78;nan;100901.06;5034213;28;20706;-64
2023/03/02 02:55:51;;;;;;;13.80;9.15;;;2.00;99.90;;;1.79;nan;100915.63;5041779;28;20190;-64
2023/03/02 02:58:41;;;;;;;14.15;10.05;;;2.00;99.90;;;1.71;nan;100923.56;5048540;28;20670;-65
2023/03/02 03:01:13;;;;;;;11.63;6.70;;;1.90;99.90;;;1.66;nan;100914.31;5040248;28;20739;-64
2023/03/02 03:03:57;;;;;;;13.18;8.18;;;1.90;99.90;;;1.67;nan;100906.53;5030521;28;20210;-64
2023/03/02 03:06:37;;;;;;;15.27;9.05;;;1.90;99.90;;;1.66;nan;100906.59;5032205;28;20204;-64
2023/03/02 03:09:11;;;;;;;14.48;9.52;;;1.90;99.90;;;1.62;nan;100910.16;5033037;28;20421;-64
2023/03/02 03:11:42;;;;;;;14.07;8.50;;;1.80;99.90;;;1.63;nan;100906.69;5040889;28;20205;-64
2023/03/02 03:14:17;;;;;;;13.40;9.15;;;1.90;99.90;;;1.61;nan;100904.16;5048211;28;20217;-64
2023/03/02 03:16:47;;;;;;;13.95;9.10;;;1.80;99.90;;;1.62;nan;100907.59;5046510;28;20219;-64
2023/03/02 03:19:28;;;;;;;11.00;7.78;;;1.80;99.90;;;1.63;nan;100904.97;5033859;28;20220;-64
2023/03/02 03:22:01;;;;;;;13.35;9.32;;;1.80;99.90;;;1.65;nan;100898.03;5039463;28;20197;-64
2023/03/02 03:24:31;;;;;;;16.60;8.88;;;1.90;99.90;;;1.65;nan;100902.31;5052321;28;20670;-63
2023/03/02 03:26:58;;;;;;;11.02;7.07;;;1.90;99.90;;;1.63;nan;100904.13;5052120;28;20270;-63
2023/03/02 03:29:27;;;;;;;14.02;8.55;;;1.80;99.90;;;1.60;nan;100906.78;5050723;28;20707;-63
2023/03/02 03:31:56;;;;;;;15.38;9.02;;;1.80;99.90;;;1.59;nan;100903.38;5052041;28;20193;-64
2023/03/02 03:34:25;;;;;;;13.60;9.40;;;1.80;99.90;;;1.58;nan;100895.72;5052518;28;20210;-64
2023/03/02 03:36:52;;;;;;;13.25;8.80;;;1.80;99.90;;;1.58;nan;100892.25;5052425;28;20643;-64
2023/03/02 03:39:19;;;;;;;12.90;8.10;;;1.80;99.90;;;1.58;nan;100897.38;5052603;28;20235;-64
2023/03/02 03:41:46;;;;;;;15.30;8.85;;;1.80;99.90;;;1.56;nan;100899.16;5053195;28;20205;-64
2023/03/02 03:44:13;;;;;;;12.77;8.10;;;1.80;99.90;;;1.56;nan;100895.75;5052537;28;20213;-64
2023/03/02 03:46:40;;;;;;;10.35;6.57;;;1.80;99.90;;;1.55;nan;100906.94;5053452;28;20677;-64
2023/03/02 03:49:07;;;;;;;14.77;8.15;;;1.80;99.90;;;1.54;nan;100912.94;5052038;28;20278;-64
2023/03/02 03:51:34;;;;;;;12.00;7.60;;;1.80;99.90;;;1.47;nan;100909.72;5049568;28;20213;-64
2023/03/02 03:54:04;;;;;;;12.65;8.75;;;1.80;99.90;;;1.52;nan;100900.16;5049933;28;20694;-64
2023/03/02 03:56:36;;;;;;;17.20;7.57;;;1.80;99.90;;;1.52;nan;100907.84;5044212;28;20553;-64
2023/03/02 03:59:06;;;;;;;12.02;8.30;;;1.70;99.90;;;1.49;nan;100913.09;5042692;28;20645;-64
2023/03/02 04:01:43;;;;;;;11.82;6.82;;;1.70;99.90;;;1.50;nan;100912.22;5047376;28;20216;-64
2023/03/02 04:04:21;;;;;;;10.13;6.03;;;1.70;99.90;;;1.53;nan;100911.28;5032635;28;20206;-64
2023/03/02 04:06:49;;;;;;;11.68;6.45;;;1.80;99.90;;;1.50;nan;100917.34;5041418;28;20647;-64
2023/03/02 04:09:17;;;;;;;10.63;6.35;;;1.80;99.90;;;1.50;nan;100913.94;5047952;28;20709;-63
2023/03/02 04:11:46;;;;;;;12.32;7.93;;;1.70;99.90;;;1.49;nan;100904.56;5041548;28;20568;-64
2023/03/02 04:14:14;;;;;;;13.15;6.15;;;1.70;99.90;;;1.46;nan;100915.75;5041817;28;20302;-63
2023/03/02 04:16:42;;;;;;;11.85;6.80;;;1.70;99.90;;;1.44;nan;100909.84;5031806;28;20210;-63
2023/03/02 04:19:11;;;;;;;12.90;7.95;;;1.70;99.90;;;1.46;nan;100913.19;5045582;28;20233;-63
2023/03/02 04:21:41;;;;;;;12.52;7.25;;;1.70;99.90;;;1.47;nan;100919.16;5044695;28;20197;-66
2023/03/02 04:24:09;;;;;;;16.23;8.43;;;1.70;99.90;;;1.47;nan;100916.59;5052288;28;20217;-64
2023/03/02 04:26:38;;;;;;;12.18;8.32;;;1.70;99.90;;;1.45;nan;100916.63;5036259;28;20202;-65
2023/03/02 04:29:05;;;;;;;12.90;7.93;;;1.60;99.90;;;1.47;nan;100912.28;5032405;28;20230;-63
2023/03/02 04:31:33;;;;;;;13.98;8.70;;;1.70;99.90;;;1.48;nan;100920.84;5031731;28;20205;-63
2023/03/02 04:34:02;;;;;;;13.75;8.50;;;1.70;99.90;;;1.49;nan;100923.38;5039035;28;20225;-64
2023/03/02 04:36:33;;;;;;;15.50;9.07;;;1.70;99.90;;;1.48;nan;100919.13;5047576;28;20201;-61
2023/03/02 04:39:01;;;;;;;12.10;7.63;;;1.70;99.90;;;1.49;nan;100918.22;5029819;28;20218;-65
2023/03/02 04:41:28;;;;;;;15.13;8.77;;;1.70;99.90;;;1.46;nan;100918.34;5051187;28;20210;-66
2023/03/02 04:43:55;;;;;;;13.75;8.65;;;1.70;99.90;;;1.45;nan;100920.94;5050809;28;20585;-66
2023/03/02 04:46:25;;;;;;;14.25;8.77;;;1.60;99.90;;;1.42;nan;100924.47;5046874;28;20258;-65
2023/03/02 04:48:53;;;;;;;17.60;8.25;;;1.60;99.90;;;1.47;nan;100924.31;5046137;28;20633;-65
2023/03/02 04:51:26;;;;;;;15.18;9.70;;;1.60;99.90;;;1.48;nan;100920.84;5038121;28;20205;-64
2023/03/02 04:53:57;;;;;;;12.30;8.75;;;1.70;99.90;;;1.50;nan;100919.06;5049317;28;20231;-66
2023/03/02 04:56:25;;;;;;;14.88;9.50;;;1.70;99.90;;;1.47;nan;100904.56;5045893;28;20205;-66
2023/03/02 04:58:52;;;;;;;15.85;9.27;;;1.70;99.90;;;1.43;nan;100918.41;5047090;28;20197;-64
2023/03/02 05:01:19;;;;;;;13.93;7.88;;;1.70;99.90;;;1.42;nan;100921.03;5040464;28;20205;-65
2023/03/02 05:03:47;;;;;;;17.38;9.10;;;1.70;99.90;;;1.40;nan;100918.53;5049756;28;20206;-68
2023/03/02 05:06:15;;;;;;;10.95;7.35;;;1.60;99.90;;;1.42;nan;100910.75;5043718;28;20259;-67
2023/03/02 05:08:43;;;;;;;16.20;8.63;;;1.60;99.90;;;1.40;nan;100913.38;5047250;28;20220;-66
2023/03/02 05:11:20;;;;;;;12.60;7.90;;;1.60;99.90;;;1.39;nan;100918.56;5048568;28;20209;-64
2023/03/02 05:13:58;;;;;;;14.75;7.10;;;1.60;99.90;;;1.36;nan;100916.91;5049417;28;20220;-64
2023/03/02 05:16:27;;;;;;;12.35;8.45;;;1.60;99.90;;;1.36;nan;100901.47;5039501;28;20208;-64
2023/03/02 05:18:55;;;;;;;14.60;9.38;;;1.60;99.90;;;1.34;nan;100910.97;5037732;28;20201;-65
2023/03/02 05:21:22;;;;;;;13.68;9.05;;;1.60;99.90;;;1.30;nan;100913.72;5039271;28;20198;-64
2023/03/02 05:23:49;;;;;;;14.18;9.13;;;1.50;99.90;;;1.27;nan;100914.63;5050078;28;20591;-65
2023/03/02 05:26:16;;;;;;;13.82;10.15;;;1.50;99.90;;;1.25;nan;100903.56;5042957;28;20216;-64
2023/03/02 05:28:44;;;;;;;12.63;9.10;;;1.50;99.90;;;1.27;nan;100898.38;5049064;28;20267;-64
2023/03/02 05:31:31;;;;;;;14.52;8.80;;;1.50;99.90;;;1.27;nan;100901.78;5043745;28;20198;-64
2023/03/02 05:33:58;;;;;;;14.10;8.77;;;1.50;99.90;;;1.33;nan;100919.59;5030352;28;20209;-65
2023/03/02 05:36:25;;;;;;;12.95;8.50;;;1.50;99.90;;;1.31;nan;100912.81;5036177;28;20210;-63
2023/03/02 05:38:52;;;;;;;12.00;8.05;;;1.50;99.90;;;1.29;nan;100910.28;5051183;28;20201;-60
2023/03/02 05:41:18;;;;;;;17.13;10.55;;;1.50;99.90;;;1.29;nan;100905.16;5047564;28;20629;-63
2023/03/02 05:43:46;;;;;;;14.07;8.82;;;1.50;99.90;;;1.32;nan;100914.50;5050022;28;20205;-64
2023/03/02 05:46:13;;;;;;;14.10;9.25;;;1.50;99.90;;;1.35;nan;100915.25;5040514;28;20582;-63
2023/03/02 05:48:41;;;;;;;11.35;8.07;;;1.50;99.90;;;1.32;nan;100910.19;5031010;28;20202;-64
2023/03/02 05:51:08;;;;;;;15.65;9.18;;;1.60;99.90;;;1.28;nan;100918.03;5034009;28;20660;-63
2023/03/02 05:53:35;;;;;;;13.55;8.82;;;1.50;99.90;;;1.29;nan;100923.13;5046314;28;20221;-64
2023/03/02 05:56:02;;;;;;;11.38;6.65;;;1.50;99.90;;;1.33;nan;100919.59;5050927;28;20255;-64
2023/03/02 05:58:30;;;;;;;13.93;6.97;;;1.50;99.90;;;1.30;nan;100921.41;5036749;28;20209;-64
2023/03/02 06:00:57;;;;;;;15.43;9.25;;;1.50;99.90;;;1.33;nan;100917.00;5045946;28;20225;-64
2023/03/02 06:03:24;;;;;;;13.65;8.68;;;1.50;99.90;;;1.37;nan;100917.75;5042287;28;20210;-65
2023/03/02 06:05:51;;;;;;;18.48;8.75;;;1.60;99.90;;;1.39;nan;100921.97;5030732;28;20244;-63
2023/03/02 06:08:20;;;;;;;12.68;8.32;;;1.60;99.90;;;1.41;nan;100932.19;5029888;28;20210;-66
2023/03/02 06:10:49;;;;;;;12.32;7.72;;;1.60;99.90;;;1.43;nan;100928.69;5035840;28;20225;-64
2023/03/02 06:13:16;;;;;;;11.75;8.65;;;1.60;99.90;;;1.48;nan;100936.28;5054792;28;20759;-64
2023/03/02 06:15:43;;;;;;;13.90;7.88;;;1.70;99.90;;;1.43;nan;100939.00;5047145;28;20568;-63
2023/03/02 06:18:11;;;;;;;14.82;9.75;;;1.70;99.90;;;1.43;nan;100933.00;5046655;28;20198;-63
2023/03/02 06:20:39;;;;;;;14.65;7.85;;;1.70;99.90;;;1.48;nan;100932.00;5054840;28;20221;-67
2023/03/02 06:23:06;;;;;;;14.52;9.13;;;1.70;99.90;;;1.52;nan;100945.59;5048467;28;20271;-63
2023/03/02 06:25:34;;;;;;;14.02;8.70;;;1.70;99.90;;;1.53;nan;100939.56;5045701;28;20619;-63
2023/03/02 06:28:01;;;;;;;11.10;6.85;;;1.80;99.90;;;1.60;nan;100941.03;5053298;28;20255;-63
2023/03/02 06:30:29;;;;;;;13.95;8.48;;;1.80;99.90;;;1.68;nan;100948.53;5037728;28;20246;-66
2023/03/02 06:32:55;;;;;;;12.45;7.90;;;1.90;99.90;;;1.80;nan;100951.59;5049737;28;20205;-64
2023/03/02 06:35:22;;;;;;;15.23;9.32;;;2.00;99.90;;;1.91;nan;100940.94;5053367;28;20208;-67
2023/03/02 06:37:50;;;;;;;11.85;8.10;;;2.10;99.90;;;1.99;nan;100954.41;5050230;28;20193;-63
2023/03/02 06:40:17;;;;;;;12.82;7.70;;;2.20;99.90;;;2.08;nan;100947.25;5035311;28;20229;-63
2023/03/02 06:42:44;;;;;;;14.50;8.40;;;2.30;99.90;;;2.16;nan;100947.84;5039888;28;20194;-64
2023/03/02 06:45:11;;;;;;;14.02;9.68;;;2.40;99.90;;;2.35;nan;100943.78;5053823;28;20213;-64
2023/03/02 06:47:39;;;;;;;13.40;7.90;;;2.50;99.90;;;2.66;nan;100951.28;5053403;28;20213;-64
2023/03/02 06:50:07;;;;;;;12.55;8.73;;;2.80;99.90;;;3.00;nan;100954.34;5042964;28;20262;-64
2023/03/02 06:52:34;;;;;;;14.10;9.43;;;3.10;99.90;;;3.40;nan;100950.34;5043816;28;20641;-64
2023/03/02 06:55:02;;;;;;;13.70;8.70;;;3.50;99.90;;;3.66;nan;100947.63;5050089;28;20225;-65
2023/03/02 06:57:32;;;;;;;12.30;8.57;;;3.80;99.90;;;3.80;nan;100953.06;5046114;28;20206;-64
2023/03/02 07:00:12;;;;;;;12.15;9.10;;;3.90;99.90;;;4.17;nan;100955.88;5036988;28;20221;-64
2023/03/02 07:02:39;;;;;;;12.07;8.60;;;4.20;99.90;;;4.43;nan;100955.63;5042278;28;20574;-63
2023/03/02 07:05:07;;;;;;;15.80;8.40;;;4.60;99.90;;;4.81;nan;100960.94;5051595;28;20205;-63
2023/03/02 07:07:33;;;;;;;10.70;7.93;;;4.90;99.90;;;5.05;nan;100960.72;5040092;28;20214;-64
2023/03/02 07:10:00;;;;;;;14.68;9.48;;;5.10;99.90;;;5.35;nan;100959.34;5045055;28;20214;-64
2023/03/02 07:12:27;;;;;;;11.30;8.38;;;5.50;99.90;;;5.51;nan;100959.50;5052169;28;20220;-65
2023/03/02 07:14:54;;;;;;;13.35;8.82;;;5.70;99.90;;;5.71;nan;100959.41;5052634;28;20381;-64
2023/03/02 07:17:21;;;;;;;13.63;9.15;;;5.90;99.90;;;5.98;nan;100952.97;5045351;28;20221;-67
2023/03/02 07:19:48;;;;;;;13.38;8.43;;;6.20;99.90;;;6.31;nan;100957.41;5032646;28;20232;-63
2023/03/02 07:22:15;;;;;;;17.38;8.82;;;6.50;99.90;;;6.78;nan;100961.91;5050667;28;20255;-64
2023/03/02 07:24:42;;;;;;;12.13;8.00;;;6.90;99.90;;;7.21;nan;100968.31;5042192;28;20275;-64
2023/03/02 07:27:11;;;;;;;7.10;4.50;;;7.40;99.50;;;7.64;nan;100964.25;5050486;28;20631;-64
2023/03/02 07:29:38;;;;;;;15.67;7.60;;;7.90;97.90;;;8.19;nan;100962.00;5049272;28;20689;-66
2023/03/02 07:32:05;;;;;;;14.73;7.17;;;8.40;96.80;;;8.74;nan;100957.06;5046825;28;20636;-64
2023/03/02 07:34:32;;;;;;;12.30;7.17;;;9.00;95.10;;;9.02;nan;100960.56;5044704;28;20707;-64
2023/03/02 07:37:00;;;;;;;14.73;6.90;;;9.40;93.10;;;9.11;nan;100957.41;5047728;28;20628;-64
2023/03/02 07:39:26;;;;;;;16.57;10.63;;;9.60;92.00;;;9.02;nan;100963.16;5037882;28;20658;-64
2023/03/02 07:41:58;;;;;;;16.17;8.90;;;9.60;91.30;;;9.25;nan;100969.56;5048197;28;20639;-64
2023/03/02 07:44:26;;;;;;;19.03;9.10;;;9.80;90.90;;;9.34;nan;100959.44;5052280;28;20638;-64
2023/03/02 07:46:53;;;;;;;17.93;10.23;;;10.00;90.00;;;10.06;nan;100963.53;5051848;28;20628;-64
2023/03/02 07:49:20;;;;;;;13.97;7.70;;;10.60;88.30;;;10.77;nan;100959.69;5051831;28;20648;-64
2023/03/02 07:51:47;;;;;;;18.53;10.30;;;11.20;85.50;;;11.48;nan;100970.38;5045850;28;20639;-65
2023/03/02 07:54:14;;;;;;;17.80;6.83;;;12.10;81.50;;;12.18;nan;100968.78;5051461;28;20669;-67
2023/03/02 07:56:41;;;;;;;14.87;10.40;;;12.80;78.20;;;12.48;nan;100969.13;5049641;28;20985;-65
2023/03/02 07:59:10;;;;;;;13.83;9.40;;;13.30;74.40;;;12.73;nan;100959.47;5037383;28;20664;-67
2023/03/02 08:01:38;;;;;;;17.70;10.57;;;13.40;72.90;;;13.05;nan;100969.16;5032925;28;21303;-64
2023/03/02 08:04:05;;;;;;;14.80;8.80;;;13.90;70.50;;;13.31;nan;100963.72;5044719;28;20628;-65
2023/03/02 08:06:32;;;;;;;13.10;9.40;;;14.10;68.90;;;13.58;nan;100961.53;5036674;28;20692;-65
2023/03/02 08:09:02;;;;;;;12.33;8.77;;;14.40;68.00;;;14.30;nan;100968.78;5049659;28;21219;-66
2023/03/02 08:11:29;;;;;;;22.17;10.97;;;15.00;66.10;;;14.27;nan;100968.16;5043973;28;20639;-65
2023/03/02 08:14:00;;;;;;;16.20;9.93;;;15.20;64.30;;;14.91;nan;100967.09;5044628;28;20663;-65
2023/03/02 08:16:28;;;;;;;16.90;9.50;;;15.70;63.30;;;15.21;nan;100959.25;5043252;28;20620;-67
2023/03/02 08:18:55;;;;;;;14.73;9.47;;;16.20;61.10;;;15.26;nan;100961.47;5041319;28;20624;-66
2023/03/02 08:21:26;;;;;;;16.50;10.20;;;16.30;60.30;;;16.17;nan;100964.78;5051247;28;20624;-65
2023/03/02 08:23:53;;;;;;;18.80;10.07;;;17.00;59.40;;;16.04;nan;100969.47;5041850;28;20635;-62
2023/03/02 08:26:20;;;;;;;16.50;9.80;;;17.10;57.90;;;16.11;nan;100976.69;5044649;28;20655;-62
2023/03/02 08:28:47;;;;;;;15.37;8.60;;;17.10;57.90;;;16.10;nan;100976.81;5040961;28;20632;-66
2023/03/02 08:31:14;;;;;;;17.17;10.17;;;17.10;57.40;;;16.79;nan;100966.97;5031924;28;20644;-66
2023/03/02 08:33:43;;;;;;;21.40;11.93;;;17.70;56.30;;;17.48;nan;100962.97;5045802;28;20667;-66
2023/03/02 08:36:14;;;;;;;18.53;11.27;;;18.40;54.80;;;17.73;nan;100964.13;5043364;28;21204;-63
2023/03/02 08:38:42;;;;;;;18.40;11.37;;;18.70;54.00;;;17.81;nan;100961.56;5048832;28;20627;-63
2023/03/02 08:41:13;;;;;;;17.90;10.43;;;19.00;52.70;;;18.29;nan;100955.97;5040563;28;21207;-69
2023/03/02 08:43:40;;;;;;;17.60;11.00;;;19.20;52.70;;;19.00;nan;100951.38;5032220;28;20636;-66
2023/03/02 08:46:09;;;;;;;18.37;11.60;;;19.90;51.70;;;19.48;nan;100951.66;5031222;28;20616;-67
2023/03/02 08:48:36;;;;;;;19.60;10.27;;;20.50;50.30;;;19.71;nan;100955.38;5045827;28;20677;-66
2023/03/02 08:51:16;;;;;;;18.00;11.93;;;20.70;49.90;;;20.29;nan;100946.56;5042378;28;20657;-66
2023/03/02 08:53:46;;;;;;;21.80;11.67;;;21.30;48.80;;;21.05;nan;100941.69;5044633;28;20746;-65
2023/03/02 08:56:25;;;;;;;16.60;10.93;;;22.00;47.90;;;21.48;nan;100947.34;5047020;28;20629;-66
2023/03/02 08:58:55;;;;;;;16.40;10.63;;;22.50;46.90;;;22.23;nan;100947.59;5044070;28;20623;-66
2023/03/02 09:01:27;;;;;;;16.13;12.63;;;23.00;46.50;;;22.74;nan;100946.84;5049171;28;20696;-65
2023/03/02 09:03:56;;;;;;;19.33;11.50;;;23.60;45.20;;;22.90;nan;100945.81;5044544;28;20626;-65
2023/03/02 09:06:23;;;;;;;15.60;10.97;;;23.90;44.40;;;23.17;nan;100947.03;5044181;28;20633;-66
2023/03/02 09:08:50;;;;;;;17.27;12.17;;;24.10;44.00;;;22.81;nan;100945.06;5039716;28;20631;-65
2023/03/02 09:11:17;;;;;;;14.00;9.93;;;23.90;43.70;;;23.39;nan;100943.47;5042418;28;21052;-65
2023/03/02 09:13:44;;;;;;;17.07;11.90;;;24.20;43.50;;;24.15;nan;100940.28;5036248;28;20716;-65
2023/03/02 09:16:11;;;;;;;18.90;12.90;;;25.00;42.60;;;24.51;nan;100939.13;5051200;28;20661;-65
2023/03/02 09:18:39;;;;;;;16.50;12.37;;;25.50;41.70;;;24.98;nan;100935.81;5041451;28;20632;-65
2023/03/02 09:21:06;;;;;;;16.80;11.80;;;26.00;41.40;;;25.28;nan;100934.53;5047034;28;21073;-65
2023/03/02 09:23:35;;;;;;;16.10;12.20;;;26.10;41.00;;;25.66;nan;100936.78;5048536;28;20755;-65
2023/03/02 09:26:03;;;;;;;17.43;11.13;;;26.60;40.50;;;25.59;nan;100935.94;5043178;28;20643;-65
2023/03/02 09:28:30;;;;;;;19.30;12.37;;;26.50;40.20;;;24.81;nan;100931.00;5042318;28;20632;-69
2023/03/02 09:31:00;;;;;;;14.93;12.93;;;26.00;40.30;;;24.77;nan;100937.75;5045068;28;20670;-64
2023/03/02 09:33:28;;;;;;;19.77;13.53;;;26.00;40.00;;;24.12;nan;100935.31;5035297;28;21259;-65
2023/03/02 09:35:55;;;;;;;16.40;11.30;;;25.20;40.80;;;24.20;nan;100927.16;5041277;28;20713;-63
2023/03/02 09:38:23;;;;;;;17.70;11.67;;;25.20;40.60;;;24.65;nan;100932.06;5040434;28;20639;-65
2023/03/02 09:41:12;;;;;;;16.23;13.23;;;25.60;40.40;;;24.95;nan;100930.03;5039936;28;20685;-66
2023/03/02 09:44:10;;;;;;;14.90;9.97;;;26.00;40.10;;;24.62;nan;100927.94;5048915;28;20643;-66
2023/03/02 09:46:39;;;;;;;21.60;9.27;;;26.00;39.80;;;24.81;nan;100925.66;5048494;28;21220;-68
2023/03/02 09:49:31;;;;;;;17.10;12.70;;;26.10;39.80;;;24.42;nan;100926.97;5048077;28;20693;-66
2023/03/02 09:52:13;;;;;;;15.47;11.13;;;25.70;40.10;;;24.95;nan;100916.69;5048208;28;20721;-68
2023/03/02 09:54:40;;;;;;;18.27;12.97;;;26.00;39.80;;;25.64;nan;100922.81;5045642;28;20671;-68
2023/03/02 09:57:23;;;;;;;16.53;13.43;;;26.60;39.40;;;25.81;nan;100919.53;5022795;28;20644;-66
2023/03/02 09:59:58;;;;;;;17.67;12.70;;;26.80;39.20;;;25.98;nan;100928.03;5043709;28;20655;-66
2023/03/02 10:02:53;;;;;;;17.20;11.60;;;27.10;39.00;;;25.42;nan;100916.75;5044089;28;20627;-68
2023/03/02 10:05:30;;;;;;;16.53;11.67;;;26.60;39.30;;;26.06;nan;100925.97;5061849;28;21208;-68
2023/03/02 10:07:57;;;;;;;17.40;13.83;;;26.90;39.40;;;25.97;nan;100915.66;5040045;28;20737;-66
2023/03/02 10:11:05;;;;;;;18.10;12.03;;;27.00;39.00;;;26.62;nan;100920.28;5037936;28;20647;-67
2023/03/02 10:14:12;;;;;;;17.43;12.20;;;27.40;39.20;;;27.35;nan;100919.09;5035015;28;20704;-66
2023/03/02 10:17:01;;;;;;;18.10;13.50;;;28.10;38.90;;;26.97;nan;100908.28;5036679;28;20977;-67
2023/03/02 10:19:42;;;;;;;15.13;13.13;;;28.20;38.20;;;27.85;nan;100912.03;5035401;28;20662;-67
2023/03/02 10:22:27;;;;;;;16.17;13.70;;;28.70;38.10;;;27.93;nan;100917.13;5043291;28;20690;-69
2023/03/02 10:25:00;;;;;;;16.50;12.30;;;28.90;37.70;;;28.50;nan;100916.09;5029931;28;20651;-67
2023/03/02 10:27:38;;;;;;;16.60;13.07;;;29.50;37.60;;;28.72;nan;100915.53;5030892;28;20709;-67
2023/03/02 10:30:13;;;;;;;17.50;14.30;;;29.90;37.10;;;28.38;nan;100913.31;5036816;28;21577;-67
2023/03/02 10:32:51;;;;;;;17.00;13.00;;;29.70;36.80;;;28.67;nan;100909.97;5037618;28;21285;-69
2023/03/02 10:35:26;;;;;;;16.77;13.00;;;29.70;37.00;;;29.02;nan;100903.00;5050542;28;20664;-65
2023/03/02 10:37:59;;;;;;;13.43;9.63;;;30.00;36.80;;;28.49;nan;100909.94;5029172;28;20670;-65
2023/03/02 10:40:55;;;;;;;16.63;11.13;;;29.70;36.90;;;28.14;nan;100896.19;5044431;28;20675;-67
2023/03/02 10:43:45;;;;;;;16.47;12.77;;;29.30;37.10;;;28.20;nan;100897.16;5041814;28;20640;-68